sensor_id;sensor_type;location;lat;lon;timestamp;temperature;humidity
74511;DHT22;62991;50.040;18.400;2022-09-09T00:07:43;19.20;72.70
74511;DHT22;62991;50.040;18.400;2022-09-09T00:10:58;19.20;72.70
74511;DHT22;62991;50.040;18.400;2022-09-09T00:14:00;19.20;72.70
74511;DHT22;62991;50.040;18.400;2022-09-09T00:17:14;19.20;72.70
74511;DHT22;62991;50.040;18.400;2022-09-09T00:20:39;19.10;72.60
74511;DHT22;62991;50.040;18.400;2022-09-09T00:23:51;19.10;72.60
74511;DHT22;62991;50.040;18.400;2022-09-09T00:26:59;19.00;72.70
74511;DHT22;62991;50.040;18.400;2022-09-09T00:30:23;19.00;72.70
74511;DHT22;62991;50.040;18.400;2022-09-09T00:33:26;19.00;72.80
74511;DHT22;62991;50.040;18.400;2022-09-09T00:36:28;19.00;72.70
74511;DHT22;62991;50.040;18.400;2022-09-09T00:39:37;18.90;72.70
74511;DHT22;62991;50.040;18.400;2022-09-09T00:42:43;18.90;72.70
74511;DHT22;62991;50.040;18.400;2022-09-09T00:53:19;18.80;72.70
74511;DHT22;62991;50.040;18.400;2022-09-09T00:56:52;18.80;72.70
74511;DHT22;62991;50.040;18.400;2022-09-09T01:03:42;18.70;72.70
74511;DHT22;62991;50.040;18.400;2022-09-09T01:06:56;18.70;72.70
74511;DHT22;62991;50.040;18.400;2022-09-09T01:10:05;18.70;72.70
74511;DHT22;62991;50.040;18.400;2022-09-09T01:13:29;18.60;72.80
74511;DHT22;62991;50.040;18.400;2022-09-09T01:16:34;18.60;72.80
74511;DHT22;62991;50.040;18.400;2022-09-09T01:26:32;18.60;72.70
74511;DHT22;62991;50.040;18.400;2022-09-09T01:29:34;18.50;72.70
74511;DHT22;62991;50.040;18.400;2022-09-09T01:32:44;18.50;72.60
74511;DHT22;62991;50.040;18.400;2022-09-09T01:38:55;18.50;72.60
74511;DHT22;62991;50.040;18.400;2022-09-09T01:41:56;18.50;72.60
74511;DHT22;62991;50.040;18.400;2022-09-09T01:44:57;18.40;72.60
74511;DHT22;62991;50.040;18.400;2022-09-09T01:47:59;18.40;72.60
74511;DHT22;62991;50.040;18.400;2022-09-09T01:51:00;18.40;72.70
74511;DHT22;62991;50.040;18.400;2022-09-09T01:54:01;18.40;72.70
74511;DHT22;62991;50.040;18.400;2022-09-09T01:57:19;18.40;72.60
74511;DHT22;62991;50.040;18.400;2022-09-09T02:00:21;18.40;72.60
74511;DHT22;62991;50.040;18.400;2022-09-09T02:03:32;18.40;72.60
74511;DHT22;62991;50.040;18.400;2022-09-09T02:06:40;18.40;72.60
74511;DHT22;62991;50.040;18.400;2022-09-09T02:09:43;18.40;72.50
74511;DHT22;62991;50.040;18.400;2022-09-09T02:12:51;18.40;72.50
74511;DHT22;62991;50.040;18.400;2022-09-09T02:16:40;18.30;72.60
74511;DHT22;62991;50.040;18.400;2022-09-09T02:19:25;18.30;72.60
74511;DHT22;62991;50.040;18.400;2022-09-09T02:22:30;18.20;72.70
74511;DHT22;62991;50.040;18.400;2022-09-09T02:25:36;18.20;72.70
74511;DHT22;62991;50.040;18.400;2022-09-09T02:28:38;18.20;72.70
74511;DHT22;62991;50.040;18.400;2022-09-09T02:31:41;18.20;72.70
74511;DHT22;62991;50.040;18.400;2022-09-09T02:34:48;18.20;72.70
74511;DHT22;62991;50.040;18.400;2022-09-09T02:37:51;18.20;72.70
74511;DHT22;62991;50.040;18.400;2022-09-09T02:40:53;18.20;72.70
74511;DHT22;62991;50.040;18.400;2022-09-09T02:43:53;18.20;72.70
74511;DHT22;62991;50.040;18.400;2022-09-09T02:56:16;18.20;72.70
74511;DHT22;62991;50.040;18.400;2022-09-09T02:59:17;18.10;72.70
74511;DHT22;62991;50.040;18.400;2022-09-09T03:02:19;18.10;72.60
74511;DHT22;62991;50.040;18.400;2022-09-09T03:05:20;18.10;72.60
74511;DHT22;62991;50.040;18.400;2022-09-09T03:08:21;18.10;72.60
74511;DHT22;62991;50.040;18.400;2022-09-09T03:11:21;18.20;72.50
74511;DHT22;62991;50.040;18.400;2022-09-09T03:14:22;18.10;72.50
74511;DHT22;62991;50.040;18.400;2022-09-09T03:17:25;18.10;72.50
74511;DHT22;62991;50.040;18.400;2022-09-09T03:20:29;18.10;72.40
74511;DHT22;62991;50.040;18.400;2022-09-09T03:23:30;18.10;72.40
74511;DHT22;62991;50.040;18.400;2022-09-09T03:26:31;18.10;72.40
74511;DHT22;62991;50.040;18.400;2022-09-09T03:29:32;18.10;72.40
74511;DHT22;62991;50.040;18.400;2022-09-09T03:32:33;18.00;72.30
74511;DHT22;62991;50.040;18.400;2022-09-09T03:35:34;18.00;72.40
74511;DHT22;62991;50.040;18.400;2022-09-09T03:38:34;18.00;72.30
74511;DHT22;62991;50.040;18.400;2022-09-09T03:41:35;18.00;72.30
74511;DHT22;62991;50.040;18.400;2022-09-09T03:44:37;18.00;72.30
74511;DHT22;62991;50.040;18.400;2022-09-09T03:47:38;18.00;72.30
74511;DHT22;62991;50.040;18.400;2022-09-09T03:50:39;18.00;72.30
74511;DHT22;62991;50.040;18.400;2022-09-09T03:53:40;18.00;72.30
74511;DHT22;62991;50.040;18.400;2022-09-09T03:56:40;18.00;72.30
74511;DHT22;62991;50.040;18.400;2022-09-09T03:59:42;18.00;72.30
74511;DHT22;62991;50.040;18.400;2022-09-09T04:02:43;18.00;72.20
74511;DHT22;62991;50.040;18.400;2022-09-09T04:05:44;18.00;72.10
74511;DHT22;62991;50.040;18.400;2022-09-09T04:08:44;18.10;72.10
74511;DHT22;62991;50.040;18.400;2022-09-09T04:11:45;18.10;72.10
74511;DHT22;62991;50.040;18.400;2022-09-09T04:14:46;18.10;72.00
74511;DHT22;62991;50.040;18.400;2022-09-09T04:17:47;18.10;72.00
74511;DHT22;62991;50.040;18.400;2022-09-09T04:20:52;18.10;72.00
74511;DHT22;62991;50.040;18.400;2022-09-09T04:23:53;18.10;71.90
74511;DHT22;62991;50.040;18.400;2022-09-09T04:26:53;18.20;71.90
74511;DHT22;62991;50.040;18.400;2022-09-09T04:29:54;18.10;71.80
74511;DHT22;62991;50.040;18.400;2022-09-09T04:32:57;18.20;71.80
74511;DHT22;62991;50.040;18.400;2022-09-09T04:35:57;18.20;71.80
74511;DHT22;62991;50.040;18.400;2022-09-09T04:38:58;18.20;71.80
74511;DHT22;62991;50.040;18.400;2022-09-09T04:41:59;18.20;71.80
74511;DHT22;62991;50.040;18.400;2022-09-09T04:45:00;18.20;71.70
74511;DHT22;62991;50.040;18.400;2022-09-09T04:48:01;18.30;71.70
74511;DHT22;62991;50.040;18.400;2022-09-09T04:51:08;18.30;71.70
74511;DHT22;62991;50.040;18.400;2022-09-09T04:54:09;18.30;71.60
74511;DHT22;62991;50.040;18.400;2022-09-09T04:57:12;18.30;71.70
74511;DHT22;62991;50.040;18.400;2022-09-09T05:00:13;18.30;71.60
74511;DHT22;62991;50.040;18.400;2022-09-09T05:03:14;18.30;71.60
74511;DHT22;62991;50.040;18.400;2022-09-09T05:06:17;18.30;71.50
74511;DHT22;62991;50.040;18.400;2022-09-09T05:09:18;18.30;71.50
74511;DHT22;62991;50.040;18.400;2022-09-09T05:12:18;18.30;71.60
74511;DHT22;62991;50.040;18.400;2022-09-09T05:15:19;18.20;71.60
74511;DHT22;62991;50.040;18.400;2022-09-09T05:18:21;18.20;71.60
74511;DHT22;62991;50.040;18.400;2022-09-09T05:21:24;18.20;71.70
74511;DHT22;62991;50.040;18.400;2022-09-09T05:24:28;18.20;71.70
74511;DHT22;62991;50.040;18.400;2022-09-09T05:27:30;18.20;71.80
74511;DHT22;62991;50.040;18.400;2022-09-09T05:30:33;18.30;71.70
74511;DHT22;62991;50.040;18.400;2022-09-09T05:33:35;18.30;71.70
74511;DHT22;62991;50.040;18.400;2022-09-09T05:36:36;18.30;71.80
74511;DHT22;62991;50.040;18.400;2022-09-09T05:39:37;18.30;71.80
74511;DHT22;62991;50.040;18.400;2022-09-09T05:42:38;18.30;71.70
74511;DHT22;62991;50.040;18.400;2022-09-09T05:45:39;18.30;71.80
74511;DHT22;62991;50.040;18.400;2022-09-09T05:48:41;18.40;71.80
74511;DHT22;62991;50.040;18.400;2022-09-09T05:51:42;18.40;71.80
74511;DHT22;62991;50.040;18.400;2022-09-09T05:54:44;18.30;71.80
74511;DHT22;62991;50.040;18.400;2022-09-09T05:57:48;18.30;71.80
74511;DHT22;62991;50.040;18.400;2022-09-09T06:00:49;18.30;71.90
74511;DHT22;62991;50.040;18.400;2022-09-09T06:03:51;18.30;72.00
74511;DHT22;62991;50.040;18.400;2022-09-09T06:06:52;18.30;72.00
74511;DHT22;62991;50.040;18.400;2022-09-09T06:09:53;18.30;72.10
74511;DHT22;62991;50.040;18.400;2022-09-09T06:12:53;18.30;72.20
74511;DHT22;62991;50.040;18.400;2022-09-09T06:15:54;18.30;72.30
74511;DHT22;62991;50.040;18.400;2022-09-09T06:18:56;18.30;72.20
74511;DHT22;62991;50.040;18.400;2022-09-09T06:21:58;18.40;72.20
74511;DHT22;62991;50.040;18.400;2022-09-09T06:24:59;18.40;72.30
74511;DHT22;62991;50.040;18.400;2022-09-09T06:28:01;18.40;72.20
74511;DHT22;62991;50.040;18.400;2022-09-09T06:31:07;18.50;72.20
74511;DHT22;62991;50.040;18.400;2022-09-09T06:34:08;18.50;72.20
74511;DHT22;62991;50.040;18.400;2022-09-09T06:37:09;18.50;72.20
74511;DHT22;62991;50.040;18.400;2022-09-09T06:40:11;18.60;72.20
74511;DHT22;62991;50.040;18.400;2022-09-09T06:43:11;18.60;72.20
74511;DHT22;62991;50.040;18.400;2022-09-09T06:46:16;18.70;72.10
74511;DHT22;62991;50.040;18.400;2022-09-09T06:49:17;18.70;72.10
74511;DHT22;62991;50.040;18.400;2022-09-09T06:52:18;18.70;72.00
74511;DHT22;62991;50.040;18.400;2022-09-09T06:55:19;18.80;72.00
74511;DHT22;62991;50.040;18.400;2022-09-09T06:58:21;18.80;71.90
74511;DHT22;62991;50.040;18.400;2022-09-09T07:01:27;18.90;71.80
74511;DHT22;62991;50.040;18.400;2022-09-09T07:04:28;18.90;71.70
74511;DHT22;62991;50.040;18.400;2022-09-09T07:07:29;18.90;71.80
74511;DHT22;62991;50.040;18.400;2022-09-09T07:10:31;18.90;71.70
74511;DHT22;62991;50.040;18.400;2022-09-09T07:13:32;19.00;71.80
74511;DHT22;62991;50.040;18.400;2022-09-09T07:16:33;19.00;71.80
74511;DHT22;62991;50.040;18.400;2022-09-09T07:19:37;19.10;71.80
74511;DHT22;62991;50.040;18.400;2022-09-09T07:22:38;19.10;71.70
74511;DHT22;62991;50.040;18.400;2022-09-09T07:25:44;19.20;71.60
74511;DHT22;62991;50.040;18.400;2022-09-09T07:28:46;19.20;71.60
74511;DHT22;62991;50.040;18.400;2022-09-09T07:31:47;19.30;71.60
74511;DHT22;62991;50.040;18.400;2022-09-09T07:34:48;19.30;71.60
74511;DHT22;62991;50.040;18.400;2022-09-09T07:37:50;19.40;71.60
74511;DHT22;62991;50.040;18.400;2022-09-09T07:40:51;19.50;71.50
74511;DHT22;62991;50.040;18.400;2022-09-09T07:43:52;19.60;71.40
74511;DHT22;62991;50.040;18.400;2022-09-09T07:46:54;19.60;71.30
74511;DHT22;62991;50.040;18.400;2022-09-09T07:49:54;19.70;71.20
74511;DHT22;62991;50.040;18.400;2022-09-09T07:52:56;19.80;71.10
74511;DHT22;62991;50.040;18.400;2022-09-09T07:56:03;19.80;71.10
74511;DHT22;62991;50.040;18.400;2022-09-09T07:59:05;19.90;71.10
74511;DHT22;62991;50.040;18.400;2022-09-09T08:02:06;20.00;70.90
74511;DHT22;62991;50.040;18.400;2022-09-09T08:05:07;20.10;70.80
74511;DHT22;62991;50.040;18.400;2022-09-09T08:08:08;20.20;70.60
74511;DHT22;62991;50.040;18.400;2022-09-09T08:11:12;20.30;70.40
74511;DHT22;62991;50.040;18.400;2022-09-09T08:14:13;20.30;70.20
74511;DHT22;62991;50.040;18.400;2022-09-09T08:17:14;20.40;70.10
74511;DHT22;62991;50.040;18.400;2022-09-09T08:20:15;20.40;70.10
74511;DHT22;62991;50.040;18.400;2022-09-09T08:23:16;20.50;69.90
74511;DHT22;62991;50.040;18.400;2022-09-09T08:26:22;20.60;69.80
74511;DHT22;62991;50.040;18.400;2022-09-09T08:29:23;20.60;69.80
74511;DHT22;62991;50.040;18.400;2022-09-09T08:32:24;20.70;69.70
74511;DHT22;62991;50.040;18.400;2022-09-09T08:35:26;20.70;69.60
74511;DHT22;62991;50.040;18.400;2022-09-09T08:38:27;20.80;69.60
74511;DHT22;62991;50.040;18.400;2022-09-09T08:41:38;20.80;69.40
74511;DHT22;62991;50.040;18.400;2022-09-09T08:51:29;20.80;69.10
74511;DHT22;62991;50.040;18.400;2022-09-09T08:54:33;20.80;69.10
74511;DHT22;62991;50.040;18.400;2022-09-09T08:57:36;20.90;69.20
74511;DHT22;62991;50.040;18.400;2022-09-09T09:01:06;20.90;69.10
74511;DHT22;62991;50.040;18.400;2022-09-09T09:07:41;21.00;68.90
74511;DHT22;62991;50.040;18.400;2022-09-09T09:10:48;21.10;68.90
74511;DHT22;62991;50.040;18.400;2022-09-09T09:14:03;21.10;69.10
74511;DHT22;62991;50.040;18.400;2022-09-09T09:17:12;21.20;69.10
74511;DHT22;62991;50.040;18.400;2022-09-09T09:20:15;21.20;69.10
74511;DHT22;62991;50.040;18.400;2022-09-09T09:23:24;21.30;69.10
74511;DHT22;62991;50.040;18.400;2022-09-09T09:26:34;21.40;69.10
74511;DHT22;62991;50.040;18.400;2022-09-09T09:29:36;21.50;68.60
74511;DHT22;62991;50.040;18.400;2022-09-09T09:32:40;21.50;68.20
74511;DHT22;62991;50.040;18.400;2022-09-09T09:35:43;21.50;67.90
74511;DHT22;62991;50.040;18.400;2022-09-09T09:39:01;21.50;67.70
74511;DHT22;62991;50.040;18.400;2022-09-09T09:42:13;21.60;67.40
74511;DHT22;62991;50.040;18.400;2022-09-09T09:45:43;21.60;67.20
74511;DHT22;62991;50.040;18.400;2022-09-09T09:49:03;21.60;66.60
74511;DHT22;62991;50.040;18.400;2022-09-09T09:52:06;21.60;66.60
74511;DHT22;62991;50.040;18.400;2022-09-09T09:55:13;21.60;66.60
74511;DHT22;62991;50.040;18.400;2022-09-09T09:58:15;21.70;66.60
74511;DHT22;62991;50.040;18.400;2022-09-09T10:01:28;21.70;66.40
74511;DHT22;62991;50.040;18.400;2022-09-09T10:04:30;21.70;65.80
74511;DHT22;62991;50.040;18.400;2022-09-09T10:07:30;21.70;65.30
74511;DHT22;62991;50.040;18.400;2022-09-09T10:17:27;21.60;64.40
74511;DHT22;62991;50.040;18.400;2022-09-09T10:21:15;21.60;64.00
74511;DHT22;62991;50.040;18.400;2022-09-09T10:31:02;21.60;63.30
74511;DHT22;62991;50.040;18.400;2022-09-09T10:34:12;21.70;63.20
74511;DHT22;62991;50.040;18.400;2022-09-09T10:51:09;21.90;62.00
74511;DHT22;62991;50.040;18.400;2022-09-09T11:00:40;22.10;61.30
74511;DHT22;62991;50.040;18.400;2022-09-09T11:03:43;22.10;61.00
74511;DHT22;62991;50.040;18.400;2022-09-09T11:06:54;22.20;60.90
74511;DHT22;62991;50.040;18.400;2022-09-09T11:10:00;22.20;60.60
74511;DHT22;62991;50.040;18.400;2022-09-09T11:13:05;22.30;60.40
74511;DHT22;62991;50.040;18.400;2022-09-09T11:19:43;22.40;59.60
74511;DHT22;62991;50.040;18.400;2022-09-09T11:22:53;22.50;59.50
74511;DHT22;62991;50.040;18.400;2022-09-09T11:25:59;22.60;59.50
74511;DHT22;62991;50.040;18.400;2022-09-09T11:39:12;22.80;57.90
74511;DHT22;62991;50.040;18.400;2022-09-09T11:42:22;22.90;58.10
74511;DHT22;62991;50.040;18.400;2022-09-09T11:45:25;23.00;57.70
74511;DHT22;62991;50.040;18.400;2022-09-09T11:51:36;23.10;56.80
74511;DHT22;62991;50.040;18.400;2022-09-09T11:54:47;23.20;56.80
74511;DHT22;62991;50.040;18.400;2022-09-09T11:57:48;23.20;56.70
74511;DHT22;62991;50.040;18.400;2022-09-09T12:00:49;23.30;56.50
74511;DHT22;62991;50.040;18.400;2022-09-09T12:10:31;23.50;56.10
74511;DHT22;62991;50.040;18.400;2022-09-09T12:13:33;23.60;55.80
74511;DHT22;62991;50.040;18.400;2022-09-09T12:16:36;23.70;55.60
74511;DHT22;62991;50.040;18.400;2022-09-09T12:19:38;23.80;55.10
74511;DHT22;62991;50.040;18.400;2022-09-09T12:32:43;24.00;54.30
74511;DHT22;62991;50.040;18.400;2022-09-09T12:35:51;24.10;54.40
74511;DHT22;62991;50.040;18.400;2022-09-09T12:38:55;24.20;54.60
74511;DHT22;62991;50.040;18.400;2022-09-09T12:41:58;24.30;54.70
74511;DHT22;62991;50.040;18.400;2022-09-09T12:45:01;24.40;54.50
74511;DHT22;62991;50.040;18.400;2022-09-09T12:48:07;24.60;54.10
74511;DHT22;62991;50.040;18.400;2022-09-09T12:51:30;24.70;53.50
74511;DHT22;62991;50.040;18.400;2022-09-09T12:54:33;24.70;53.10
74511;DHT22;62991;50.040;18.400;2022-09-09T12:57:37;24.80;53.00
74511;DHT22;62991;50.040;18.400;2022-09-09T13:00:49;24.80;52.90
74511;DHT22;62991;50.040;18.400;2022-09-09T13:03:52;24.80;52.50
74511;DHT22;62991;50.040;18.400;2022-09-09T13:06:53;24.80;52.40
74511;DHT22;62991;50.040;18.400;2022-09-09T13:09:55;24.90;52.30
74511;DHT22;62991;50.040;18.400;2022-09-09T13:12:57;24.90;52.00
74511;DHT22;62991;50.040;18.400;2022-09-09T13:16:02;24.90;51.70
74511;DHT22;62991;50.040;18.400;2022-09-09T13:19:32;24.90;51.50
74511;DHT22;62991;50.040;18.400;2022-09-09T13:22:35;24.90;51.20
74511;DHT22;62991;50.040;18.400;2022-09-09T13:25:36;24.90;51.40
74511;DHT22;62991;50.040;18.400;2022-09-09T13:28:36;24.90;51.20
74511;DHT22;62991;50.040;18.400;2022-09-09T13:31:37;24.90;51.20
74511;DHT22;62991;50.040;18.400;2022-09-09T13:34:38;25.00;51.10
74511;DHT22;62991;50.040;18.400;2022-09-09T13:37:40;25.10;51.10
74511;DHT22;62991;50.040;18.400;2022-09-09T13:41:18;25.10;51.10
74511;DHT22;62991;50.040;18.400;2022-09-09T13:44:31;25.10;50.90
74511;DHT22;62991;50.040;18.400;2022-09-09T13:47:35;25.20;50.90
74511;DHT22;62991;50.040;18.400;2022-09-09T13:50:36;25.30;51.20
74511;DHT22;62991;50.040;18.400;2022-09-09T13:53:37;25.50;51.10
74511;DHT22;62991;50.040;18.400;2022-09-09T13:56:39;25.80;50.90
74511;DHT22;62991;50.040;18.400;2022-09-09T13:59:40;26.10;50.70
74511;DHT22;62991;50.040;18.400;2022-09-09T14:02:41;26.40;50.40
74511;DHT22;62991;50.040;18.400;2022-09-09T14:05:42;26.70;50.10
74511;DHT22;62991;50.040;18.400;2022-09-09T14:08:44;26.90;49.80
74511;DHT22;62991;50.040;18.400;2022-09-09T14:11:46;27.00;49.50
74511;DHT22;62991;50.040;18.400;2022-09-09T14:14:46;27.10;49.20
74511;DHT22;62991;50.040;18.400;2022-09-09T14:17:47;27.00;49.10
74511;DHT22;62991;50.040;18.400;2022-09-09T14:20:49;27.00;48.90
74511;DHT22;62991;50.040;18.400;2022-09-09T14:23:50;26.90;48.80
74511;DHT22;62991;50.040;18.400;2022-09-09T14:26:51;26.70;48.80
74511;DHT22;62991;50.040;18.400;2022-09-09T14:29:52;26.60;48.80
74511;DHT22;62991;50.040;18.400;2022-09-09T14:32:53;26.50;48.80
74511;DHT22;62991;50.040;18.400;2022-09-09T14:35:58;26.40;48.80
74511;DHT22;62991;50.040;18.400;2022-09-09T14:38:59;26.20;48.90
74511;DHT22;62991;50.040;18.400;2022-09-09T14:42:00;26.10;49.10
74511;DHT22;62991;50.040;18.400;2022-09-09T14:45:02;26.00;49.10
74511;DHT22;62991;50.040;18.400;2022-09-09T14:48:03;26.00;49.20
74511;DHT22;62991;50.040;18.400;2022-09-09T14:51:19;26.10;49.30
74511;DHT22;62991;50.040;18.400;2022-09-09T14:54:20;26.30;49.00
74511;DHT22;62991;50.040;18.400;2022-09-09T14:57:23;26.50;48.80
74511;DHT22;62991;50.040;18.400;2022-09-09T15:00:24;26.70;48.30
74511;DHT22;62991;50.040;18.400;2022-09-09T15:03:25;26.90;47.80
74511;DHT22;62991;50.040;18.400;2022-09-09T15:06:28;26.90;47.30
74511;DHT22;62991;50.040;18.400;2022-09-09T15:09:30;26.90;47.10
74511;DHT22;62991;50.040;18.400;2022-09-09T15:12:31;26.80;47.20
74511;DHT22;62991;50.040;18.400;2022-09-09T15:15:33;26.70;47.30
74511;DHT22;62991;50.040;18.400;2022-09-09T15:18:35;26.60;47.30
74511;DHT22;62991;50.040;18.400;2022-09-09T15:21:37;26.50;47.20
74511;DHT22;62991;50.040;18.400;2022-09-09T15:24:38;26.40;47.20
74511;DHT22;62991;50.040;18.400;2022-09-09T15:27:39;26.30;47.20
74511;DHT22;62991;50.040;18.400;2022-09-09T15:30:40;26.10;47.40
74511;DHT22;62991;50.040;18.400;2022-09-09T15:33:41;26.00;47.50
74511;DHT22;62991;50.040;18.400;2022-09-09T15:36:44;25.90;47.60
74511;DHT22;62991;50.040;18.400;2022-09-09T15:39:46;25.80;47.70
74511;DHT22;62991;50.040;18.400;2022-09-09T15:42:46;25.70;47.90
74511;DHT22;62991;50.040;18.400;2022-09-09T15:45:53;25.50;48.20
74511;DHT22;62991;50.040;18.400;2022-09-09T15:49:03;25.40;48.30
74511;DHT22;62991;50.040;18.400;2022-09-09T15:52:04;25.20;48.60
74511;DHT22;62991;50.040;18.400;2022-09-09T15:55:05;25.10;48.80
74511;DHT22;62991;50.040;18.400;2022-09-09T15:58:06;25.00;49.10
74511;DHT22;62991;50.040;18.400;2022-09-09T16:01:09;24.90;49.40
74511;DHT22;62991;50.040;18.400;2022-09-09T16:04:11;24.80;49.60
74511;DHT22;62991;50.040;18.400;2022-09-09T16:07:12;24.70;49.80
74511;DHT22;62991;50.040;18.400;2022-09-09T16:10:14;24.60;50.00
74511;DHT22;62991;50.040;18.400;2022-09-09T16:13:14;24.50;50.20
74511;DHT22;62991;50.040;18.400;2022-09-09T16:16:17;24.40;50.40
74511;DHT22;62991;50.040;18.400;2022-09-09T16:19:20;24.30;50.50
74511;DHT22;62991;50.040;18.400;2022-09-09T16:22:21;24.20;50.60
74511;DHT22;62991;50.040;18.400;2022-09-09T16:25:22;24.10;50.70
74511;DHT22;62991;50.040;18.400;2022-09-09T16:28:23;24.10;50.80
74511;DHT22;62991;50.040;18.400;2022-09-09T16:31:24;24.00;51.10
74511;DHT22;62991;50.040;18.400;2022-09-09T16:34:25;23.90;51.30
74511;DHT22;62991;50.040;18.400;2022-09-09T16:37:26;23.90;51.40
74511;DHT22;62991;50.040;18.400;2022-09-09T16:40:27;23.80;51.50
74511;DHT22;62991;50.040;18.400;2022-09-09T16:43:28;23.70;51.60
74511;DHT22;62991;50.040;18.400;2022-09-09T16:46:32;23.70;51.80
74511;DHT22;62991;50.040;18.400;2022-09-09T16:49:33;23.60;51.90
74511;DHT22;62991;50.040;18.400;2022-09-09T16:52:34;23.50;52.10
74511;DHT22;62991;50.040;18.400;2022-09-09T16:55:41;23.40;52.20
74511;DHT22;62991;50.040;18.400;2022-09-09T16:58:43;23.40;52.30
74511;DHT22;62991;50.040;18.400;2022-09-09T17:01:47;23.30;52.40
74511;DHT22;62991;50.040;18.400;2022-09-09T17:04:48;23.30;52.50
74511;DHT22;62991;50.040;18.400;2022-09-09T17:07:49;23.20;52.60
74511;DHT22;62991;50.040;18.400;2022-09-09T17:10:49;23.10;52.60
74511;DHT22;62991;50.040;18.400;2022-09-09T17:13:51;23.10;52.70
74511;DHT22;62991;50.040;18.400;2022-09-09T17:16:52;23.00;52.80
74511;DHT22;62991;50.040;18.400;2022-09-09T17:19:53;23.00;52.90
74511;DHT22;62991;50.040;18.400;2022-09-09T17:22:54;22.90;52.90
74511;DHT22;62991;50.040;18.400;2022-09-09T17:25:58;22.90;53.00
74511;DHT22;62991;50.040;18.400;2022-09-09T17:29:01;22.80;53.00
74511;DHT22;62991;50.040;18.400;2022-09-09T17:32:03;22.80;53.00
74511;DHT22;62991;50.040;18.400;2022-09-09T17:35:05;22.70;53.00
74511;DHT22;62991;50.040;18.400;2022-09-09T17:38:06;22.70;53.00
74511;DHT22;62991;50.040;18.400;2022-09-09T17:44:09;22.60;53.10
74511;DHT22;62991;50.040;18.400;2022-09-09T17:47:10;22.60;53.10
74511;DHT22;62991;50.040;18.400;2022-09-09T17:50:11;22.50;53.20
74511;DHT22;62991;50.040;18.400;2022-09-09T17:53:13;22.50;53.30
74511;DHT22;62991;50.040;18.400;2022-09-09T17:56:16;22.40;53.40
74511;DHT22;62991;50.040;18.400;2022-09-09T17:59:17;22.40;53.50
74511;DHT22;62991;50.040;18.400;2022-09-09T18:02:18;22.40;53.60
74511;DHT22;62991;50.040;18.400;2022-09-09T18:05:19;22.30;53.80
74511;DHT22;62991;50.040;18.400;2022-09-09T18:08:20;22.30;53.90
74511;DHT22;62991;50.040;18.400;2022-09-09T18:11:24;22.30;54.00
74511;DHT22;62991;50.040;18.400;2022-09-09T18:14:27;22.20;54.00
74511;DHT22;62991;50.040;18.400;2022-09-09T18:17:30;22.20;54.10
74511;DHT22;62991;50.040;18.400;2022-09-09T18:20:31;22.20;54.20
74511;DHT22;62991;50.040;18.400;2022-09-09T18:23:37;22.20;54.30
74511;DHT22;62991;50.040;18.400;2022-09-09T18:26:39;22.20;54.30
74511;DHT22;62991;50.040;18.400;2022-09-09T18:29:40;22.10;54.30
74511;DHT22;62991;50.040;18.400;2022-09-09T18:32:41;22.10;54.40
74511;DHT22;62991;50.040;18.400;2022-09-09T18:35:42;22.10;54.50
74511;DHT22;62991;50.040;18.400;2022-09-09T18:38:43;22.10;54.60
74511;DHT22;62991;50.040;18.400;2022-09-09T18:41:47;22.00;54.70
74511;DHT22;62991;50.040;18.400;2022-09-09T18:44:48;22.10;54.70
74511;DHT22;62991;50.040;18.400;2022-09-09T18:47:49;22.00;54.80
74511;DHT22;62991;50.040;18.400;2022-09-09T18:50:50;22.00;54.80
74511;DHT22;62991;50.040;18.400;2022-09-09T18:53:59;22.00;54.90
74511;DHT22;62991;50.040;18.400;2022-09-09T18:57:00;22.00;55.10
74511;DHT22;62991;50.040;18.400;2022-09-09T19:00:02;22.00;55.10
74511;DHT22;62991;50.040;18.400;2022-09-09T19:03:03;22.00;55.10
74511;DHT22;62991;50.040;18.400;2022-09-09T19:09:15;21.90;55.40
74511;DHT22;62991;50.040;18.400;2022-09-09T19:12:15;21.90;55.50
74511;DHT22;62991;50.040;18.400;2022-09-09T19:15:16;21.90;55.50
74511;DHT22;62991;50.040;18.400;2022-09-09T19:18:17;21.90;55.50
74511;DHT22;62991;50.040;18.400;2022-09-09T19:21:26;21.80;55.60
74511;DHT22;62991;50.040;18.400;2022-09-09T19:24:32;21.80;55.60
74511;DHT22;62991;50.040;18.400;2022-09-09T19:27:32;21.80;55.70
74511;DHT22;62991;50.040;18.400;2022-09-09T19:30:34;21.80;55.70
74511;DHT22;62991;50.040;18.400;2022-09-09T19:33:36;21.80;55.80
74511;DHT22;62991;50.040;18.400;2022-09-09T19:36:37;21.70;55.90
74511;DHT22;62991;50.040;18.400;2022-09-09T19:39:38;21.70;55.90
74511;DHT22;62991;50.040;18.400;2022-09-09T19:42:39;21.70;55.90
74511;DHT22;62991;50.040;18.400;2022-09-09T19:45:40;21.70;56.00
74511;DHT22;62991;50.040;18.400;2022-09-09T19:48:41;21.70;55.90
74511;DHT22;62991;50.040;18.400;2022-09-09T19:51:42;21.70;56.00
74511;DHT22;62991;50.040;18.400;2022-09-09T19:54:44;21.70;56.00
74511;DHT22;62991;50.040;18.400;2022-09-09T19:57:45;21.70;56.00
74511;DHT22;62991;50.040;18.400;2022-09-09T20:00:46;21.70;56.00
74511;DHT22;62991;50.040;18.400;2022-09-09T20:03:48;21.60;55.90
74511;DHT22;62991;50.040;18.400;2022-09-09T20:06:50;21.60;55.90
74511;DHT22;62991;50.040;18.400;2022-09-09T20:09:52;21.60;55.90
74511;DHT22;62991;50.040;18.400;2022-09-09T20:12:54;21.60;55.90
74511;DHT22;62991;50.040;18.400;2022-09-09T20:15:56;21.60;55.90
74511;DHT22;62991;50.040;18.400;2022-09-09T20:19:04;21.60;55.90
74511;DHT22;62991;50.040;18.400;2022-09-09T20:22:05;21.60;55.90
74511;DHT22;62991;50.040;18.400;2022-09-09T20:25:06;21.60;55.90
74511;DHT22;62991;50.040;18.400;2022-09-09T20:28:06;21.60;55.90
74511;DHT22;62991;50.040;18.400;2022-09-09T20:31:10;21.50;55.90
74511;DHT22;62991;50.040;18.400;2022-09-09T20:34:14;21.50;55.90
74511;DHT22;62991;50.040;18.400;2022-09-09T20:37:15;21.50;55.90
74511;DHT22;62991;50.040;18.400;2022-09-09T20:40:17;21.50;56.00
74511;DHT22;62991;50.040;18.400;2022-09-09T20:43:19;21.50;56.00
74511;DHT22;62991;50.040;18.400;2022-09-09T20:46:22;21.50;56.10
74511;DHT22;62991;50.040;18.400;2022-09-09T20:49:23;21.50;56.00
74511;DHT22;62991;50.040;18.400;2022-09-09T20:52:25;21.50;56.10
74511;DHT22;62991;50.040;18.400;2022-09-09T20:55:25;21.40;56.20
74511;DHT22;62991;50.040;18.400;2022-09-09T20:58:26;21.50;56.30
74511;DHT22;62991;50.040;18.400;2022-09-09T21:01:27;21.40;56.30